createdAt,value
2023-01-05T00:01:11.017Z,101863.00
2023-01-05T00:03:37.712Z,101870.00
2023-01-05T00:06:15.890Z,101862.00
2023-01-05T00:08:43.815Z,101864.00
2023-01-05T00:11:32.413Z,101854.00
2023-01-05T00:14:17.704Z,101853.00
2023-01-05T00:17:03.097Z,101852.00
2023-01-05T00:19:48.281Z,101851.00
2023-01-05T00:22:32.271Z,101844.00
2023-01-05T00:25:11.816Z,101839.00
2023-01-05T00:27:40.058Z,101848.00
2023-01-05T00:30:07.481Z,101850.00
2023-01-05T00:32:34.081Z,101841.00
2023-01-05T00:35:02.297Z,101852.00
2023-01-05T00:37:32.806Z,101846.00
2023-01-05T00:39:59.745Z,101844.00
2023-01-05T00:42:26.804Z,101837.00
2023-01-05T00:44:53.558Z,101839.00
2023-01-05T00:47:20.265Z,101855.00
2023-01-05T00:49:46.937Z,101856.00
2023-01-05T00:52:13.552Z,101847.00
2023-01-05T00:54:40.293Z,101863.00
2023-01-05T00:57:09.979Z,101862.00
2023-01-05T00:59:36.639Z,101845.00
2023-01-05T01:02:03.480Z,101845.00
2023-01-05T01:04:34.353Z,101837.00
2023-01-05T01:07:01.950Z,101844.00
2023-01-05T01:09:28.968Z,101834.00
2023-01-05T01:11:55.557Z,101849.00
2023-01-05T01:14:22.742Z,101844.00
2023-01-05T01:16:49.637Z,101851.00
2023-01-05T01:19:20.238Z,101834.00
2023-01-05T01:21:46.884Z,101834.00
2023-01-05T01:24:23.333Z,101835.00
2023-01-05T01:26:50.338Z,101833.00
2023-01-05T01:29:20.046Z,101837.00
2023-01-05T01:31:51.342Z,101861.00
2023-01-05T01:34:18.113Z,101855.00
2023-01-05T01:36:45.141Z,101846.00
2023-01-05T01:39:12.265Z,101856.00
2023-01-05T01:41:39.626Z,101865.00
2023-01-05T01:44:43.642Z,101870.00
2023-01-05T01:47:15.632Z,101871.00
2023-01-05T01:49:42.756Z,101876.00
2023-01-05T01:52:09.631Z,101878.00
2023-01-05T01:54:36.509Z,101882.00
2023-01-05T01:57:04.514Z,101890.00
2023-01-05T01:59:31.611Z,101891.00
2023-01-05T02:02:00.566Z,101890.00
2023-01-05T02:04:27.843Z,101902.00
2023-01-05T02:06:54.549Z,101917.00
2023-01-05T02:09:21.198Z,101912.00
2023-01-05T02:12:02.521Z,101913.00
2023-01-05T02:14:47.163Z,101922.00
2023-01-05T02:17:22.683Z,101925.00
2023-01-05T02:19:58.182Z,101921.00
2023-01-05T02:23:11.547Z,101930.00
2023-01-05T02:26:07.172Z,101928.00
2023-01-05T02:28:39.589Z,101914.00
2023-01-05T02:31:17.510Z,101903.00
2023-01-05T02:33:54.865Z,101909.00
2023-01-05T02:36:28.496Z,101912.00
2023-01-05T02:39:13.624Z,101919.00
2023-01-05T02:41:58.346Z,101914.00
2023-01-05T02:44:29.359Z,101920.00
2023-01-05T02:47:43.473Z,101911.00
2023-01-05T02:50:17.579Z,101900.00
2023-01-05T02:53:03.318Z,101902.00
2023-01-05T02:55:53.959Z,101910.00
2023-01-05T02:58:31.705Z,101911.00
2023-01-05T03:01:03.897Z,101931.00
2023-01-05T03:03:39.986Z,101930.00
2023-01-05T03:06:13.306Z,101940.00
2023-01-05T03:08:49.384Z,101926.00
2023-01-05T03:11:34.926Z,101924.00
2023-01-05T03:14:16.213Z,101924.00
2023-01-05T03:16:45.619Z,101927.00
2023-01-05T03:19:33.181Z,101927.00
2023-01-05T03:22:24.015Z,101933.00
2023-01-05T03:25:09.802Z,101928.00
2023-01-05T03:27:55.699Z,101921.00
2023-01-05T03:30:45.651Z,101926.00
2023-01-05T03:33:44.644Z,101941.00
2023-01-05T03:36:15.901Z,101933.00
2023-01-05T03:38:45.330Z,101939.00
2023-01-05T03:41:15.417Z,101928.00
2023-01-05T03:43:43.407Z,101933.00
2023-01-05T03:46:17.350Z,101924.00
2023-01-05T03:48:44.131Z,101930.00
2023-01-05T03:51:10.869Z,101925.00
2023-01-05T03:53:37.535Z,101929.00
2023-01-05T03:56:04.454Z,101919.00
2023-01-05T03:58:31.125Z,101913.00
2023-01-05T04:00:57.743Z,101910.00
2023-01-05T04:03:31.110Z,101912.00
2023-01-05T04:05:58.449Z,101916.00
2023-01-05T04:08:25.059Z,101918.00
2023-01-05T04:10:53.544Z,101926.00
2023-01-05T04:13:20.609Z,101921.00
2023-01-05T04:15:47.257Z,101931.00
2023-01-05T04:18:14.104Z,101925.00
2023-01-05T04:20:40.762Z,101928.00
2023-01-05T04:23:07.555Z,101933.00
2023-01-05T04:25:34.283Z,101950.00
2023-01-05T04:28:01.047Z,101939.00
2023-01-05T04:30:27.726Z,101948.00
2023-01-05T04:32:54.308Z,101939.00
2023-01-05T04:35:20.941Z,101934.00
2023-01-05T04:37:47.563Z,101946.00
2023-01-05T04:40:14.310Z,101950.00
2023-01-05T04:42:41.015Z,101956.00
2023-01-05T04:45:08.125Z,101963.00
2023-01-05T04:47:34.718Z,101966.00
2023-01-05T04:50:01.444Z,101971.00
2023-01-05T04:52:28.073Z,101977.00
2023-01-05T04:54:54.784Z,101979.00
2023-01-05T04:57:21.409Z,101974.00
2023-01-05T04:59:48.007Z,101982.00
2023-01-05T05:02:14.954Z,101984.00
2023-01-05T05:04:41.607Z,101975.00
2023-01-05T05:07:08.245Z,101985.00
2023-01-05T05:09:34.861Z,101979.00
2023-01-05T05:12:01.495Z,101990.00
2023-01-05T05:14:28.106Z,101997.00
2023-01-05T05:16:54.809Z,101995.00
2023-01-05T05:19:21.444Z,101998.00
2023-01-05T05:21:48.112Z,101997.00
2023-01-05T05:24:14.876Z,101991.00
2023-01-05T05:26:41.631Z,101999.00
2023-01-05T05:29:08.314Z,101997.00
2023-01-05T05:31:35.097Z,101993.00
2023-01-05T05:34:01.906Z,101994.00
2023-01-05T05:36:28.581Z,101994.00
2023-01-05T05:38:56.612Z,102004.00
2023-01-05T05:41:23.211Z,102004.00
2023-01-05T05:43:49.794Z,102006.00
2023-01-05T05:46:16.538Z,102020.00
2023-01-05T05:48:43.198Z,102014.00
2023-01-05T05:51:09.791Z,102014.00
2023-01-05T05:53:36.398Z,102021.00
2023-01-05T05:56:03.178Z,102027.00
2023-01-05T05:58:29.771Z,102026.00
2023-01-05T06:00:59.857Z,102024.00
2023-01-05T06:03:26.599Z,102026.00
2023-01-05T06:05:53.806Z,102033.00
2023-01-05T06:08:21.824Z,102026.00
2023-01-05T06:10:51.495Z,102022.00
2023-01-05T06:13:18.508Z,102032.00
2023-01-05T06:15:45.182Z,102031.00
2023-01-05T06:18:11.823Z,102034.00
2023-01-05T06:20:38.507Z,102039.00
2023-01-05T06:23:05.845Z,102043.00
2023-01-05T06:25:33.257Z,102050.00
2023-01-05T06:28:00.415Z,102045.00
2023-01-05T06:30:28.195Z,102049.00
2023-01-05T06:32:55.489Z,102052.00
2023-01-05T06:35:22.182Z,102038.00
2023-01-05T06:37:48.847Z,102051.00
2023-01-05T06:40:15.616Z,102054.00
2023-01-05T06:42:42.781Z,102045.00
2023-01-05T06:45:13.396Z,102052.00
2023-01-05T06:47:40.285Z,102056.00
2023-01-05T06:50:07.762Z,102050.00
2023-01-05T06:52:40.097Z,102048.00
2023-01-05T06:55:09.103Z,102065.00
2023-01-05T06:57:36.686Z,102063.00
2023-01-05T07:00:09.236Z,102063.00
2023-01-05T07:02:36.052Z,102069.00
2023-01-05T07:05:02.871Z,102078.00
2023-01-05T07:07:29.578Z,102085.00
2023-01-05T07:09:56.290Z,102093.00
2023-01-05T07:12:23.005Z,102089.00
2023-01-05T07:14:54.256Z,102100.00
2023-01-05T07:17:23.883Z,102104.00
2023-01-05T07:19:50.480Z,102094.00
2023-01-05T07:22:17.176Z,102098.00
2023-01-05T07:24:43.850Z,102096.00
2023-01-05T07:27:10.738Z,102096.00
2023-01-05T07:29:37.665Z,102096.00
2023-01-05T07:32:04.960Z,102096.00
2023-01-05T07:34:31.623Z,102097.00
2023-01-05T07:36:58.356Z,102097.00
2023-01-05T07:39:24.972Z,102093.00
2023-01-05T07:41:51.690Z,102098.00
2023-01-05T07:44:18.414Z,102097.00
2023-01-05T07:46:45.080Z,102101.00
2023-01-05T07:49:11.671Z,102101.00
2023-01-05T07:51:38.529Z,102095.00
2023-01-05T07:54:05.144Z,102091.00
2023-01-05T07:56:31.808Z,102097.00
2023-01-05T07:58:59.266Z,102094.00
2023-01-05T08:01:26.058Z,102098.00
2023-01-05T08:03:52.757Z,102095.00
2023-01-05T08:06:20.069Z,102097.00
2023-01-05T08:08:47.646Z,102109.00
2023-01-05T08:11:16.035Z,102100.00
2023-01-05T08:14:02.557Z,102106.00
2023-01-05T08:16:33.800Z,102112.00
2023-01-05T08:19:00.905Z,102111.00
2023-01-05T08:21:27.817Z,102117.00
2023-01-05T08:23:54.692Z,102120.00
2023-01-05T08:26:23.940Z,102127.00
2023-01-05T08:28:51.813Z,102130.00
2023-01-05T08:31:22.743Z,102125.00
2023-01-05T08:33:49.504Z,102128.00
2023-01-05T08:36:19.884Z,102133.00
2023-01-05T08:38:50.774Z,102133.00
2023-01-05T08:41:21.266Z,102140.00
2023-01-05T08:43:52.967Z,102139.00
2023-01-05T08:46:21.280Z,102143.00
2023-01-05T08:48:52.537Z,102143.00
2023-01-05T08:51:19.652Z,102137.00
2023-01-05T08:53:46.676Z,102144.00
2023-01-05T08:56:14.296Z,102133.00
2023-01-05T08:58:41.793Z,102142.00
2023-01-05T09:01:14.015Z,102143.00
2023-01-05T09:03:40.845Z,102141.00
2023-01-05T09:06:09.604Z,102140.00
2023-01-05T09:08:36.432Z,102145.00
2023-01-05T09:11:23.319Z,102152.00
2023-01-05T09:13:52.793Z,102143.00
2023-01-05T09:19:09.805Z,102143.00
2023-01-05T09:21:36.581Z,102149.00
2023-01-05T09:24:04.084Z,102160.00
2023-01-05T09:26:30.795Z,102161.00
2023-01-05T09:28:57.457Z,102151.00
2023-01-05T09:31:24.170Z,102155.00
2023-01-05T09:33:51.530Z,102159.00
2023-01-05T09:36:19.270Z,102161.00
2023-01-05T09:38:53.553Z,102160.00
2023-01-05T09:41:20.123Z,102156.00
2023-01-05T09:43:48.879Z,102157.00
2023-01-05T09:46:18.465Z,102155.00
2023-01-05T09:48:50.206Z,102168.00
2023-01-05T09:51:16.968Z,102159.00
2023-01-05T09:53:43.869Z,102173.00
2023-01-05T09:56:58.955Z,102166.00
2023-01-05T09:59:21.013Z,102177.00
2023-01-05T10:01:50.982Z,102177.00
2023-01-05T10:04:28.427Z,102165.00
2023-01-05T10:07:07.873Z,102174.00
2023-01-05T10:09:39.516Z,102179.00
2023-01-05T10:12:27.593Z,102174.00
2023-01-05T10:15:17.238Z,102180.00
2023-01-05T10:17:44.820Z,102180.00
2023-01-05T10:20:16.618Z,102181.00
2023-01-05T10:23:08.394Z,102177.00
2023-01-05T10:25:45.995Z,102173.00
2023-01-05T10:28:40.803Z,102171.00
2023-01-05T10:31:24.242Z,102177.00
2023-01-05T10:34:18.294Z,102177.00
2023-01-05T10:37:09.387Z,102177.00
2023-01-05T10:39:44.651Z,102173.00
2023-01-05T10:42:29.808Z,102172.00
2023-01-05T10:45:04.872Z,102168.00
2023-01-05T10:47:37.469Z,102176.00
2023-01-05T10:50:33.175Z,102158.00
2023-01-05T10:53:03.888Z,102148.00
2023-01-05T10:55:31.692Z,102155.00
2023-01-05T10:57:58.396Z,102156.00
2023-01-05T11:00:41.743Z,102157.00
2023-01-05T11:03:14.706Z,102157.00
2023-01-05T11:05:48.427Z,102149.00
2023-01-05T11:08:21.098Z,102146.00
2023-01-05T11:10:57.693Z,102145.00
2023-01-05T11:13:34.954Z,102147.00
2023-01-05T11:16:17.545Z,102144.00
2023-01-05T11:18:55.024Z,102144.00
2023-01-05T11:21:45.965Z,102141.00
2023-01-05T11:24:33.880Z,102143.00
2023-01-05T11:27:19.793Z,102148.00
2023-01-05T11:30:17.550Z,102127.00
2023-01-05T11:32:45.628Z,102127.00
2023-01-05T11:35:21.022Z,102122.00
2023-01-05T11:37:47.800Z,102122.00
2023-01-05T11:40:19.493Z,102128.00
2023-01-05T11:42:46.730Z,102129.00
2023-01-05T11:45:25.035Z,102121.00
2023-01-05T11:47:57.786Z,102127.00
2023-01-05T11:50:31.106Z,102127.00
2023-01-05T11:52:59.556Z,102119.00
2023-01-05T11:55:33.777Z,102121.00
2023-01-05T11:58:26.194Z,102121.00
2023-01-05T12:01:06.240Z,102119.00
2023-01-05T12:04:05.181Z,102114.00
2023-01-05T12:06:56.944Z,102128.00
2023-01-05T12:09:34.601Z,102118.00
2023-01-05T12:12:35.866Z,102118.00
2023-01-05T12:15:35.900Z,102128.00
2023-01-05T12:18:37.610Z,102118.00
2023-01-05T12:21:13.931Z,102119.00
2023-01-05T12:23:55.540Z,102114.00
2023-01-05T12:26:30.178Z,102107.00
2023-01-05T12:30:24.982Z,102116.00
2023-01-05T12:35:40.623Z,102110.00
2023-01-05T12:38:36.800Z,102099.00
2023-01-05T12:41:26.213Z,102102.00
2023-01-05T12:44:14.900Z,102096.00
2023-01-05T12:47:04.823Z,102100.00
2023-01-05T12:49:38.374Z,102097.00
2023-01-05T12:52:17.518Z,102101.00
2023-01-05T12:54:56.675Z,102102.00
2023-01-05T12:57:45.246Z,102094.00
2023-01-05T13:00:15.211Z,102089.00
2023-01-05T13:02:49.619Z,102085.00
2023-01-05T13:05:46.562Z,102082.00
2023-01-05T13:08:19.402Z,102083.00
2023-01-05T13:10:56.908Z,102076.00
2023-01-05T13:13:37.506Z,102068.00
2023-01-05T13:16:16.581Z,102062.00
2023-01-05T13:18:52.373Z,102070.00
2023-01-05T13:21:21.531Z,102071.00
2023-01-05T13:23:53.358Z,102064.00
2023-01-05T13:26:22.201Z,102060.00
2023-01-05T13:28:52.992Z,102056.00
2023-01-05T13:31:22.657Z,102062.00
2023-01-05T13:34:11.163Z,102060.00
2023-01-05T13:36:54.188Z,102054.00
2023-01-05T13:39:26.932Z,102054.00
2023-01-05T13:41:59.318Z,102059.00
2023-01-05T13:44:50.738Z,102064.00
2023-01-05T13:47:28.606Z,102064.00
2023-01-05T13:50:27.496Z,102060.00
2023-01-05T13:53:04.513Z,102066.00
2023-01-05T13:55:34.584Z,102054.00
2023-01-05T13:58:03.205Z,102060.00
2023-01-05T14:00:39.922Z,102058.00
2023-01-05T14:03:28.463Z,102048.00
2023-01-05T14:05:56.230Z,102048.00
2023-01-05T14:08:29.609Z,102057.00
2023-01-05T14:11:17.933Z,102050.00
2023-01-05T14:13:52.505Z,102049.00
2023-01-05T14:16:41.310Z,102051.00
2023-01-05T14:19:21.600Z,102044.00
2023-01-05T14:21:51.509Z,102037.00
2023-01-05T14:24:48.287Z,102034.00
2023-01-05T14:27:20.693Z,102043.00
2023-01-05T14:32:41.105Z,102038.00
2023-01-05T14:35:19.744Z,102033.00
2023-01-05T14:37:52.549Z,102048.00
2023-01-05T14:40:40.962Z,102048.00
2023-01-05T14:43:26.717Z,102043.00
2023-01-05T14:46:07.109Z,102045.00
2023-01-05T14:48:43.536Z,102037.00
2023-01-05T14:51:26.837Z,102038.00
2023-01-05T14:53:58.877Z,102044.00
2023-01-05T14:56:28.473Z,102047.00
2023-01-05T14:59:13.484Z,102044.00
2023-01-05T15:02:02.220Z,102038.00
2023-01-05T15:04:37.652Z,102042.00
2023-01-05T15:07:36.435Z,102039.00
2023-01-05T15:10:33.575Z,102040.00
2023-01-05T15:13:30.969Z,102030.00
2023-01-05T15:16:03.813Z,102039.00
2023-01-05T15:19:01.376Z,102038.00
2023-01-05T15:21:27.848Z,102033.00
2023-01-05T15:24:00.055Z,102034.00
2023-01-05T15:26:48.054Z,102026.00
2023-01-05T15:29:44.413Z,102037.00
2023-01-05T15:32:24.038Z,102032.00
2023-01-05T15:35:04.907Z,102025.00
2023-01-05T15:37:36.981Z,102025.00
2023-01-05T15:40:25.895Z,102019.00
2023-01-05T15:42:56.365Z,102022.00
2023-01-05T15:45:29.635Z,102027.00
2023-01-05T15:47:57.883Z,102024.00
2023-01-05T15:50:36.560Z,102022.00
2023-01-05T15:53:03.416Z,102025.00
2023-01-05T15:55:30.924Z,102021.00
2023-01-05T15:58:03.966Z,102019.00
2023-01-05T16:00:33.249Z,102017.00
2023-01-05T16:03:00.547Z,102021.00
2023-01-05T16:05:30.451Z,102030.00
2023-01-05T16:08:00.378Z,102016.00
2023-01-05T16:10:38.113Z,102009.00
2023-01-05T16:13:16.941Z,101996.00
2023-01-05T16:15:47.494Z,101992.00
2023-01-05T16:18:23.615Z,101986.00
2023-01-05T16:20:53.042Z,101993.00
2023-01-05T16:23:35.418Z,101988.00
2023-01-05T16:26:02.871Z,101979.00
2023-01-05T16:28:30.568Z,101978.00
2023-01-05T16:30:57.446Z,101983.00
2023-01-05T16:33:35.977Z,101979.00
2023-01-05T16:36:10.172Z,101975.00
2023-01-05T16:38:36.847Z,101978.00
2023-01-05T16:41:10.319Z,101981.00
2023-01-05T16:43:41.210Z,101985.00
2023-01-05T16:46:18.874Z,101989.00
2023-01-05T16:49:12.108Z,101988.00
2023-01-05T16:51:40.843Z,101994.00
2023-01-05T16:54:23.587Z,101991.00
2023-01-05T16:57:02.334Z,101986.00
2023-01-05T16:59:31.900Z,101989.00
2023-01-05T17:01:58.615Z,101993.00
2023-01-05T17:04:25.327Z,101985.00
2023-01-05T17:06:52.727Z,101991.00
2023-01-05T17:09:24.882Z,101989.00
2023-01-05T17:11:54.885Z,101981.00
2023-01-05T17:14:22.636Z,101986.00
2023-01-05T17:16:49.276Z,101987.00
2023-01-05T17:19:21.504Z,101981.00
2023-01-05T17:21:54.450Z,101980.00
2023-01-05T17:24:21.512Z,101972.00
2023-01-05T17:26:48.230Z,101976.00
2023-01-05T17:29:28.237Z,101967.00
2023-01-05T17:31:55.536Z,101968.00
2023-01-05T17:34:23.057Z,101965.00
2023-01-05T17:36:54.756Z,101965.00
2023-01-05T17:39:22.206Z,101967.00
2023-01-05T17:41:52.066Z,101964.00
2023-01-05T17:44:19.210Z,101972.00
2023-01-05T17:46:47.451Z,101975.00
2023-01-05T17:49:20.718Z,101980.00
2023-01-05T17:51:47.636Z,101971.00
2023-01-05T17:54:14.414Z,101965.00
2023-01-05T17:56:41.017Z,101970.00
2023-01-05T17:59:07.659Z,101965.00
2023-01-05T18:01:34.400Z,101964.00
2023-01-05T18:04:02.064Z,101969.00
2023-01-05T18:06:28.828Z,101963.00
2023-01-05T18:08:55.388Z,101959.00
2023-01-05T18:11:22.081Z,101968.00
2023-01-05T18:13:49.095Z,101966.00
2023-01-05T18:16:16.091Z,101963.00
2023-01-05T18:18:42.928Z,101965.00
2023-01-05T18:21:09.549Z,101963.00
2023-01-05T18:23:36.286Z,101952.00
2023-01-05T18:26:05.382Z,101954.00
2023-01-05T18:28:32.029Z,101942.00
2023-01-05T18:30:58.931Z,101947.00
2023-01-05T18:33:25.620Z,101961.00
2023-01-05T18:38:21.881Z,101956.00
2023-01-05T18:40:49.613Z,101956.00
2023-01-05T18:43:17.182Z,101956.00
2023-01-05T18:45:44.377Z,101951.00
2023-01-05T18:48:11.035Z,101941.00
2023-01-05T18:50:45.184Z,101946.00
2023-01-05T18:53:13.201Z,101948.00
2023-01-05T18:55:41.668Z,101945.00
2023-01-05T18:58:09.402Z,101943.00
2023-01-05T19:00:38.190Z,101939.00
2023-01-05T19:03:04.813Z,101932.00
2023-01-05T19:05:31.447Z,101938.00
2023-01-05T19:07:58.011Z,101940.00
2023-01-05T19:10:24.630Z,101939.00
2023-01-05T19:12:51.304Z,101942.00
2023-01-05T19:15:17.961Z,101949.00
2023-01-05T19:17:48.367Z,101954.00
2023-01-05T19:20:15.143Z,101934.00
2023-01-05T19:22:41.888Z,101941.00
2023-01-05T19:25:08.697Z,101943.00
2023-01-05T19:27:35.413Z,101941.00
2023-01-05T19:30:02.246Z,101943.00
2023-01-05T19:32:28.941Z,101939.00
2023-01-05T19:34:55.824Z,101945.00
2023-01-05T19:37:22.560Z,101944.00
2023-01-05T19:39:49.166Z,101938.00
2023-01-05T19:42:15.837Z,101941.00
2023-01-05T19:44:42.625Z,101934.00
2023-01-05T19:47:09.269Z,101938.00
2023-01-05T19:49:35.850Z,101935.00
2023-01-05T19:52:02.442Z,101925.00
2023-01-05T19:54:29.165Z,101932.00
2023-01-05T19:56:56.444Z,101932.00
2023-01-05T19:59:26.498Z,101928.00
2023-01-05T20:01:54.826Z,101925.00
2023-01-05T20:04:21.607Z,101926.00
2023-01-05T20:06:48.235Z,101932.00
2023-01-05T20:09:18.874Z,101925.00
2023-01-05T20:11:48.834Z,101931.00
2023-01-05T20:14:19.156Z,101930.00
2023-01-05T20:16:49.405Z,101919.00
2023-01-05T20:19:16.946Z,101906.00
2023-01-05T20:21:43.572Z,101912.00
2023-01-05T20:24:17.407Z,101909.00
2023-01-05T20:26:45.935Z,101906.00
2023-01-05T20:29:16.868Z,101900.00
2023-01-05T20:31:52.558Z,101894.00
2023-01-05T20:34:21.189Z,101903.00
2023-01-05T20:36:49.638Z,101900.00
2023-01-05T20:39:22.401Z,101905.00
2023-01-05T20:41:51.196Z,101907.00
2023-01-05T20:44:24.196Z,101908.00
2023-01-05T20:46:53.595Z,101906.00
2023-01-05T20:49:21.513Z,101899.00
2023-01-05T20:51:48.448Z,101899.00
2023-01-05T20:54:15.485Z,101903.00
2023-01-05T20:56:43.807Z,101901.00
2023-01-05T20:59:23.310Z,101895.00
2023-01-05T21:01:51.287Z,101884.00
2023-01-05T21:04:19.109Z,101882.00
2023-01-05T21:06:46.225Z,101886.00
2023-01-05T21:09:13.178Z,101883.00
2023-01-05T21:11:40.842Z,101890.00
2023-01-05T21:14:08.873Z,101884.00
2023-01-05T21:16:42.896Z,101892.00
2023-01-05T21:19:12.021Z,101893.00
2023-01-05T21:21:38.883Z,101885.00
2023-01-05T21:24:07.897Z,101872.00
2023-01-05T21:26:34.801Z,101875.00
2023-01-05T21:29:01.425Z,101878.00
2023-01-05T21:31:28.062Z,101883.00
2023-01-05T21:33:54.938Z,101884.00
2023-01-05T21:36:27.501Z,101884.00
2023-01-05T21:39:01.359Z,101876.00
2023-01-05T21:41:49.745Z,101881.00
2023-01-05T21:44:16.893Z,101880.00
2023-01-05T21:46:44.148Z,101870.00
2023-01-05T21:49:12.020Z,101870.00
2023-01-05T21:51:57.785Z,101860.00
2023-01-05T21:54:43.238Z,101860.00
2023-01-05T21:57:10.702Z,101850.00
2023-01-05T21:59:37.372Z,101855.00
2023-01-05T22:02:04.404Z,101858.00
2023-01-05T22:04:31.063Z,101854.00
2023-01-05T22:06:57.928Z,101858.00
2023-01-05T22:09:25.047Z,101853.00
2023-01-05T22:11:51.767Z,101845.00
2023-01-05T22:14:18.469Z,101844.00
2023-01-05T22:16:45.093Z,101840.00
2023-01-05T22:19:12.017Z,101839.00
2023-01-05T22:21:38.782Z,101833.00
2023-01-05T22:24:06.415Z,101834.00
2023-01-05T22:26:33.043Z,101838.00
2023-01-05T22:28:59.901Z,101835.00
2023-01-05T22:31:29.172Z,101840.00
2023-01-05T22:33:58.007Z,101838.00
2023-01-05T22:36:26.346Z,101841.00
2023-01-05T22:38:53.852Z,101834.00
2023-01-05T22:41:23.168Z,101822.00
2023-01-05T22:43:50.543Z,101822.00
2023-01-05T22:46:22.640Z,101815.00
2023-01-05T22:48:51.595Z,101821.00
2023-01-05T22:51:21.101Z,101814.00
2023-01-05T22:53:48.493Z,101811.00
2023-01-05T22:56:16.468Z,101821.00
2023-01-05T22:58:43.279Z,101816.00
2023-01-05T23:01:11.399Z,101818.00
2023-01-05T23:03:38.643Z,101811.00
2023-01-05T23:06:05.987Z,101806.00
2023-01-05T23:08:34.953Z,101808.00
2023-01-05T23:11:31.913Z,101805.00
2023-01-05T23:14:00.200Z,101795.00
2023-01-05T23:16:27.602Z,101795.00
2023-01-05T23:18:54.811Z,101789.00
2023-01-05T23:21:23.258Z,101792.00
2023-01-05T23:23:55.304Z,101792.00
2023-01-05T23:26:22.195Z,101775.00
2023-01-05T23:28:49.464Z,101776.00
2023-01-05T23:31:16.564Z,101780.00
2023-01-05T23:33:44.047Z,101794.00
2023-01-05T23:36:12.352Z,101791.00
2023-01-05T23:39:06.886Z,101794.00
2023-01-05T23:41:33.527Z,101788.00
2023-01-05T23:44:00.121Z,101782.00
2023-01-05T23:46:26.911Z,101785.00
2023-01-05T23:48:53.624Z,101780.00
2023-01-05T23:51:20.681Z,101778.00
2023-01-05T23:53:52.122Z,101777.00
2023-01-05T23:56:22.592Z,101772.00
2023-01-05T23:58:54.078Z,101767.00
